createdAt,value
2024-02-17T00:00:06.745Z,101246.91
2024-02-17T00:02:34.179Z,101234.47
2024-02-17T00:05:01.125Z,101234.47
2024-02-17T00:07:28.297Z,101238.13
2024-02-17T00:09:55.004Z,101251.72
2024-02-17T00:12:21.756Z,101244.50
2024-02-17T00:14:48.784Z,101240.25
2024-02-17T00:17:15.580Z,101249.19
2024-02-17T00:19:42.772Z,101238.72
2024-02-17T00:22:09.614Z,101249.75
2024-02-17T00:24:36.327Z,101246.38
2024-02-17T00:27:03.814Z,101253.69
2024-02-17T00:29:30.730Z,101258.38
2024-02-17T00:31:57.801Z,101249.72
2024-02-17T00:34:25.140Z,101249.88
2024-02-17T00:36:52.415Z,101261.63
2024-02-17T00:39:19.342Z,101261.88
2024-02-17T00:41:47.127Z,101261.88
2024-02-17T00:44:14.114Z,101276.59
2024-02-17T00:46:41.427Z,101285.94
2024-02-17T00:49:10.741Z,101268.66
2024-02-17T00:51:37.850Z,101274.91
2024-02-17T00:54:04.694Z,101277.97
2024-02-17T00:56:31.463Z,101275.16
2024-02-17T00:58:58.197Z,101282.50
2024-02-17T01:01:32.915Z,101289.84
2024-02-17T01:04:05.301Z,101287.44
2024-02-17T01:06:32.312Z,101296.47
2024-02-17T01:08:59.037Z,101304.81
2024-02-17T01:11:25.902Z,101313.81
2024-02-17T01:13:52.695Z,101317.50
2024-02-17T01:16:19.421Z,101314.13
2024-02-17T01:18:46.476Z,101291.47
2024-02-17T01:21:13.449Z,101287.81
2024-02-17T01:23:40.202Z,101309.13
2024-02-17T01:26:08.259Z,101313.78
2024-02-17T01:28:35.184Z,101303.31
2024-02-17T01:31:02.032Z,101301.75
2024-02-17T01:33:28.927Z,101308.09
2024-02-17T01:35:57.973Z,101316.31
2024-02-17T01:38:24.643Z,101306.41
2024-02-17T01:40:51.449Z,101304.56
2024-02-17T01:43:18.258Z,101303.31
2024-02-17T01:45:46.857Z,101300.75
2024-02-17T01:48:14.440Z,101307.97
2024-02-17T01:50:41.746Z,101300.91
2024-02-17T01:53:08.856Z,101296.50
2024-02-17T01:55:36.244Z,101298.22
2024-02-17T01:58:03.140Z,101300.75
2024-02-17T02:00:30.464Z,101318.81
2024-02-17T02:02:57.552Z,101310.34
2024-02-17T02:05:24.645Z,101309.75
2024-02-17T02:07:51.360Z,101329.25
2024-02-17T02:10:18.206Z,101332.94
2024-02-17T02:12:45.960Z,101339.16
2024-02-17T02:15:14.298Z,101345.91
2024-02-17T02:17:42.441Z,101353.50
2024-02-17T02:20:13.195Z,101359.66
2024-02-17T02:22:40.277Z,101355.63
2024-02-17T02:25:10.444Z,101362.38
2024-02-17T02:27:43.591Z,101367.03
2024-02-17T02:30:10.986Z,101364.63
2024-02-17T02:32:37.799Z,101353.19
2024-02-17T02:35:05.552Z,101373.63
2024-02-17T02:37:32.400Z,101382.94
2024-02-17T02:39:59.098Z,101394.09
2024-02-17T02:42:25.953Z,101387.22
2024-02-17T02:44:53.195Z,101400.06
2024-02-17T02:47:19.973Z,101382.22
2024-02-17T02:49:46.997Z,101395.41
2024-02-17T02:52:15.205Z,101429.75
2024-02-17T02:54:42.134Z,101391.03
2024-02-17T02:57:09.584Z,101395.22
2024-02-17T02:59:36.509Z,101395.94
2024-02-17T03:02:05.936Z,101407.16
2024-02-17T03:04:32.807Z,101403.88
2024-02-17T03:06:59.870Z,101411.31
2024-02-17T03:09:26.848Z,101409.88
2024-02-17T03:11:53.680Z,101410.38
2024-02-17T03:14:22.716Z,101415.94
2024-02-17T03:16:49.460Z,101406.31
2024-02-17T03:19:17.038Z,101393.06
2024-02-17T03:21:43.923Z,101400.84
2024-02-17T03:24:11.687Z,101406.94
2024-02-17T03:26:38.745Z,101398.91
2024-02-17T03:29:05.510Z,101383.94
2024-02-17T03:31:32.357Z,101427.59
2024-02-17T03:34:06.835Z,101409.81
2024-02-17T03:36:34.422Z,101424.44
2024-02-17T03:39:01.251Z,101415.06
2024-02-17T03:41:29.470Z,101414.09
2024-02-17T03:43:56.467Z,101405.94
2024-02-17T03:46:23.166Z,101432.69
2024-02-17T03:48:51.473Z,101448.91
2024-02-17T03:51:18.454Z,101430.41
2024-02-17T03:53:45.189Z,101431.50
2024-02-17T03:56:15.436Z,101441.47
2024-02-17T03:58:42.185Z,101443.41
2024-02-17T04:01:09.073Z,101451.44
2024-02-17T04:03:35.966Z,101471.13
2024-02-17T04:06:03.870Z,101442.81
2024-02-17T04:08:30.634Z,101472.59
2024-02-17T04:10:59.519Z,101473.56
2024-02-17T04:13:26.581Z,101477.44
2024-02-17T04:15:53.411Z,101492.03
2024-02-17T04:18:20.304Z,101466.50
2024-02-17T04:20:48.728Z,101464.06
2024-02-17T04:23:15.493Z,101470.50
2024-02-17T04:25:43.157Z,101491.53
2024-02-17T04:28:09.815Z,101462.34
2024-02-17T04:30:36.832Z,101489.31
2024-02-17T04:33:04.923Z,101476.16
2024-02-17T04:35:31.847Z,101495.03
2024-02-17T04:37:58.623Z,101495.88
2024-02-17T04:40:25.418Z,101484.66
2024-02-17T04:42:53.719Z,101486.84
2024-02-17T04:45:20.627Z,101495.97
2024-02-17T04:47:47.743Z,101503.34
2024-02-17T04:50:14.646Z,101501.78
2024-02-17T04:52:42.554Z,101507.97
2024-02-17T04:55:10.346Z,101497.28
2024-02-17T04:57:37.322Z,101509.66
2024-02-17T05:00:07.270Z,101508.81
2024-02-17T05:02:37.649Z,101509.91
2024-02-17T05:05:04.872Z,101544.97
2024-02-17T05:07:31.800Z,101537.31
2024-02-17T05:09:58.648Z,101527.81
2024-02-17T05:12:25.723Z,101541.44
2024-02-17T05:14:52.776Z,101536.28
2024-02-17T05:17:19.591Z,101533.97
2024-02-17T05:19:47.731Z,101552.56
2024-02-17T05:22:14.831Z,101543.81
2024-02-17T05:24:44.927Z,101549.91
2024-02-17T05:27:12.293Z,101543.81
2024-02-17T05:29:40.022Z,101578.66
2024-02-17T05:32:08.248Z,101550.66
2024-02-17T05:34:35.755Z,101558.19
2024-02-17T05:37:05.136Z,101569.91
2024-02-17T05:39:33.009Z,101563.09
2024-02-17T05:42:00.499Z,101554.88
2024-02-17T05:44:27.922Z,101560.31
2024-02-17T05:46:54.643Z,101559.22
2024-02-17T05:49:23.368Z,101571.84
2024-02-17T05:51:50.684Z,101573.78
2024-02-17T05:54:19.085Z,101584.47
2024-02-17T05:56:46.763Z,101574.34
2024-02-17T05:59:15.101Z,101582.13
2024-02-17T06:01:42.920Z,101593.66
2024-02-17T06:04:10.002Z,101595.84
2024-02-17T06:06:36.919Z,101597.53
2024-02-17T06:09:03.763Z,101602.66
2024-02-17T06:11:30.565Z,101601.91
2024-02-17T06:13:58.244Z,101603.84
2024-02-17T06:16:28.557Z,101613.88
2024-02-17T06:19:14.212Z,101620.31
2024-02-17T06:21:41.121Z,101627.47
2024-02-17T06:24:07.866Z,101633.41
2024-02-17T06:26:36.921Z,101636.31
2024-02-17T06:29:07.505Z,101636.63
2024-02-17T06:31:39.696Z,101629.38
2024-02-17T06:34:07.607Z,101630.22
2024-02-17T06:36:35.116Z,101637.06
2024-02-17T06:39:01.811Z,101647.53
2024-02-17T06:41:28.671Z,101643.88
2024-02-17T06:43:55.433Z,101642.19
2024-02-17T06:46:22.551Z,101647.31
2024-02-17T06:48:52.058Z,101668.66
2024-02-17T06:51:21.113Z,101667.72
2024-02-17T06:53:48.220Z,101675.72
2024-02-17T06:56:15.392Z,101666.75
2024-02-17T06:58:42.799Z,101676.34
2024-02-17T07:01:10.863Z,101683.72
2024-02-17T07:03:38.080Z,101684.03
2024-02-17T07:06:06.153Z,101683.19
2024-02-17T07:08:33.189Z,101683.28
2024-02-17T07:11:00.707Z,101684.47
2024-02-17T07:13:27.699Z,101687.22
2024-02-17T07:15:54.467Z,101694.72
2024-02-17T07:18:21.374Z,101687.84
2024-02-17T07:20:52.152Z,101675.38
2024-02-17T07:23:21.944Z,101691.16
2024-02-17T07:25:49.118Z,101699.19
2024-02-17T07:28:18.135Z,101680.81
2024-02-17T07:30:46.022Z,101694.25
2024-02-17T07:33:13.643Z,101706.84
2024-02-17T07:35:43.979Z,101716.88
2024-02-17T07:38:12.279Z,101717.94
2024-02-17T07:40:39.972Z,101717.94
2024-02-17T07:43:07.158Z,101733.41
2024-02-17T07:45:34.491Z,101721.78
2024-02-17T07:48:01.501Z,101693.41
2024-02-17T07:50:28.638Z,101698.31
2024-02-17T07:52:55.558Z,101691.81
2024-02-17T07:55:23.043Z,101690.66
2024-02-17T07:57:50.396Z,101715.41
2024-02-17T08:00:18.700Z,101708.25
2024-02-17T08:02:47.531Z,101725.34
2024-02-17T08:05:16.009Z,101720.28
2024-02-17T08:07:46.344Z,101699.91
2024-02-17T08:10:13.364Z,101712.41
2024-02-17T08:12:40.264Z,101703.44
2024-02-17T08:15:08.476Z,101704.94
2024-02-17T08:17:36.281Z,101682.50
2024-02-17T08:20:05.440Z,101731.44
2024-02-17T08:22:33.217Z,101707.19
2024-02-17T08:24:59.952Z,101718.41
2024-02-17T08:27:26.738Z,101728.03
2024-02-17T08:29:53.584Z,101707.31
2024-02-17T08:32:20.342Z,101712.66
2024-02-17T08:34:48.124Z,101713.09
2024-02-17T08:37:15.098Z,101731.22
2024-02-17T08:39:41.853Z,101728.75
2024-02-17T08:42:08.747Z,101729.72
2024-02-17T08:44:35.572Z,101724.59
2024-02-17T08:47:02.231Z,101739.09
2024-02-17T08:49:28.968Z,101741.97
2024-02-17T08:51:55.831Z,101769.91
2024-02-17T08:54:26.764Z,101740.78
2024-02-17T08:56:55.071Z,101756.31
2024-02-17T08:59:22.165Z,101745.84
2024-02-17T09:01:49.086Z,101750.97
2024-02-17T09:04:15.969Z,101754.50
2024-02-17T09:06:42.946Z,101756.31
2024-02-17T09:09:13.036Z,101748.13
2024-02-17T09:11:39.881Z,101781.84
2024-02-17T09:14:06.670Z,101761.44
2024-02-17T09:16:33.312Z,101779.38
2024-02-17T09:19:00.101Z,101749.69
2024-02-17T09:21:26.860Z,101762.03
2024-02-17T09:23:53.616Z,101767.59
2024-02-17T09:26:20.337Z,101769.28
2024-02-17T09:28:47.184Z,101780.94
2024-02-17T09:31:13.841Z,101783.59
2024-02-17T09:33:40.806Z,101781.88
2024-02-17T09:36:09.165Z,101781.13
2024-02-17T09:38:36.055Z,101804.50
2024-02-17T09:41:02.755Z,101803.81
2024-02-17T09:43:29.634Z,101801.91
2024-02-17T09:45:57.461Z,101801.91
2024-02-17T09:48:26.432Z,101813.44
2024-02-17T09:50:55.384Z,101812.38
2024-02-17T09:53:23.569Z,101817.81
2024-02-17T09:55:50.484Z,101820.50
2024-02-17T09:58:17.301Z,101819.63
2024-02-17T10:00:44.096Z,101827.22
2024-02-17T10:03:11.635Z,101825.22
2024-02-17T10:05:38.755Z,101838.47
2024-02-17T10:08:06.424Z,101824.28
2024-02-17T10:10:33.153Z,101848.56
2024-02-17T10:13:00.372Z,101842.28
2024-02-17T10:15:27.901Z,101852.97
2024-02-17T10:17:56.724Z,101855.81
2024-02-17T10:20:23.745Z,101862.88
2024-02-17T10:22:51.218Z,101861.91
2024-02-17T10:25:20.127Z,101857.31
2024-02-17T10:27:48.577Z,101861.72
2024-02-17T10:30:19.060Z,101881.16
2024-02-17T10:32:46.094Z,101885.63
2024-02-17T10:35:14.504Z,101884.66
2024-02-17T10:37:41.670Z,101890.00
2024-02-17T10:40:14.424Z,101886.41
2024-02-17T10:42:41.797Z,101897.16
2024-02-17T10:45:09.187Z,101890.97
2024-02-17T10:47:39.309Z,101898.00
2024-02-17T10:50:17.136Z,101903.16
2024-02-17T10:52:53.495Z,101908.38
2024-02-17T10:55:28.510Z,101900.19
2024-02-17T10:57:55.456Z,101909.91
2024-02-17T11:00:23.688Z,101921.34
2024-02-17T11:02:56.690Z,101924.78
2024-02-17T11:05:24.311Z,101918.47
2024-02-17T11:07:52.579Z,101950.59
2024-02-17T11:10:29.431Z,101943.47
2024-02-17T11:13:01.424Z,101945.06
2024-02-17T11:15:31.347Z,101944.22
2024-02-17T11:18:01.192Z,101944.22
2024-02-17T11:20:28.908Z,101951.06
2024-02-17T11:23:01.420Z,101952.59
2024-02-17T11:25:42.673Z,101954.28
2024-02-17T11:28:23.507Z,101959.91
2024-02-17T11:31:01.410Z,101955.91
2024-02-17T11:33:34.259Z,101959.97
2024-02-17T11:36:06.123Z,101968.94
2024-02-17T11:38:33.126Z,101972.56
2024-02-17T11:41:04.078Z,101977.03
2024-02-17T11:43:33.337Z,101988.38
2024-02-17T11:46:01.125Z,101998.84
2024-02-17T11:48:33.082Z,102000.75
2024-02-17T11:51:28.822Z,101998.84
2024-02-17T11:53:57.258Z,102014.03
2024-02-17T11:56:25.837Z,102013.16
2024-02-17T11:58:55.029Z,102017.53
2024-02-17T12:01:22.038Z,102028.97
2024-02-17T12:03:49.540Z,102024.69
2024-02-17T12:06:17.041Z,102037.75
2024-02-17T12:08:43.930Z,102026.31
2024-02-17T12:11:11.407Z,102055.50
2024-02-17T12:13:38.449Z,102053.78
2024-02-17T12:16:07.162Z,102047.78
2024-02-17T12:18:37.647Z,102061.22
2024-02-17T12:21:08.337Z,102074.75
2024-02-17T12:23:49.368Z,102079.34
2024-02-17T12:26:24.734Z,102071.44
2024-02-17T12:29:05.082Z,102081.06
2024-02-17T12:31:32.846Z,102088.31
2024-02-17T12:34:00.078Z,102096.13
2024-02-17T12:36:30.744Z,102090.69
2024-02-17T12:39:00.198Z,102100.50
2024-02-17T12:41:27.791Z,102110.44
2024-02-17T12:43:56.557Z,102114.63
2024-02-17T12:46:27.774Z,102114.41
2024-02-17T12:48:55.415Z,102119.13
2024-02-17T12:51:24.726Z,102124.47
2024-02-17T12:53:52.462Z,102132.56
2024-02-17T12:56:24.693Z,102138.84
2024-02-17T12:58:53.148Z,102143.31
2024-02-17T13:01:20.555Z,102134.25
2024-02-17T13:03:47.907Z,102145.81
2024-02-17T13:06:16.292Z,102165.34
2024-02-17T13:08:47.912Z,102175.19
2024-02-17T13:11:15.943Z,102181.53
2024-02-17T13:13:42.623Z,102194.91
2024-02-17T13:16:09.404Z,102200.25
2024-02-17T13:18:36.390Z,102202.91
2024-02-17T13:21:04.295Z,102225.53
2024-02-17T13:23:31.042Z,102215.88
2024-02-17T13:25:57.756Z,102233.00
2024-02-17T13:28:24.515Z,102242.34
2024-02-17T13:30:51.280Z,102249.75
2024-02-17T13:33:18.673Z,102267.88
2024-02-17T13:35:45.545Z,102271.66
2024-02-17T13:38:22.049Z,102290.88
2024-02-17T13:40:56.278Z,102302.47
2024-02-17T13:43:23.117Z,102321.50
2024-02-17T13:45:50.155Z,102327.19
2024-02-17T13:48:17.310Z,102328.91
2024-02-17T13:50:44.324Z,102340.78
2024-02-17T13:53:11.057Z,102338.38
2024-02-17T13:55:39.397Z,102358.19
2024-02-17T13:58:07.853Z,102364.44
2024-02-17T14:00:34.837Z,102364.63
2024-02-17T14:03:02.769Z,102376.31
2024-02-17T14:05:29.692Z,102382.53
2024-02-17T14:07:57.819Z,102379.06
2024-02-17T14:10:24.866Z,102392.75
2024-02-17T14:12:52.145Z,102400.28
2024-02-17T14:15:20.534Z,102431.66
2024-02-17T14:17:48.066Z,102431.03
2024-02-17T14:20:15.095Z,102431.03
2024-02-17T14:22:41.891Z,102443.75
2024-02-17T14:25:08.947Z,102444.88
2024-02-17T14:27:37.585Z,102456.84
2024-02-17T14:30:08.371Z,102466.72
2024-02-17T14:32:35.213Z,102473.72
2024-02-17T14:35:03.017Z,102480.84
2024-02-17T14:37:31.158Z,102473.88
2024-02-17T14:40:00.695Z,102474.72
2024-02-17T14:42:27.664Z,102498.50
2024-02-17T14:44:54.450Z,102502.09
2024-02-17T14:47:21.306Z,102515.34
2024-02-17T14:49:49.285Z,102526.06
2024-02-17T14:52:18.430Z,102532.19
2024-02-17T14:54:45.793Z,102538.41
2024-02-17T14:57:16.460Z,102566.03
2024-02-17T14:59:43.188Z,102551.94
2024-02-17T15:02:10.237Z,102560.00
2024-02-17T15:04:37.003Z,102568.09
2024-02-17T15:07:04.069Z,102572.53
2024-02-17T15:09:31.846Z,102583.97
2024-02-17T15:11:59.958Z,102582.22
2024-02-17T15:14:29.297Z,102590.28
2024-02-17T15:17:01.488Z,102603.53
2024-02-17T15:19:28.333Z,102603.53
2024-02-17T15:21:55.354Z,102600.94
2024-02-17T15:24:22.160Z,102620.31
2024-02-17T15:26:48.873Z,102623.03
2024-02-17T15:29:15.618Z,102617.78
2024-02-17T15:31:42.367Z,102620.59
2024-02-17T15:34:09.141Z,102637.38
2024-02-17T15:36:37.535Z,102648.03
2024-02-17T15:39:07.285Z,102646.16
2024-02-17T15:41:36.523Z,102658.59
2024-02-17T15:44:06.602Z,102659.69
2024-02-17T15:46:33.918Z,102685.50
2024-02-17T15:49:00.761Z,102682.88
2024-02-17T15:51:27.558Z,102700.75
2024-02-17T15:53:54.253Z,102698.19
2024-02-17T15:56:21.049Z,102701.94
2024-02-17T15:58:47.714Z,102705.69
2024-02-17T16:01:14.804Z,102714.66
2024-02-17T16:03:41.921Z,102723.53
2024-02-17T16:06:11.795Z,102722.66
2024-02-17T16:08:42.830Z,102733.13
2024-02-17T16:11:11.843Z,102741.97
2024-02-17T16:13:45.324Z,102751.78
2024-02-17T16:16:16.448Z,102755.34
2024-02-17T16:18:46.881Z,102760.84
2024-02-17T16:21:15.676Z,102768.00
2024-02-17T16:23:42.442Z,102774.22
2024-02-17T16:26:09.871Z,102784.16
2024-02-17T16:28:36.615Z,102791.19
2024-02-17T16:31:04.663Z,102788.69
2024-02-17T16:33:36.105Z,102800.13
2024-02-17T16:36:07.132Z,102796.69
2024-02-17T16:38:34.112Z,102802.94
2024-02-17T16:41:03.475Z,102800.41
2024-02-17T16:43:33.096Z,102814.66
2024-02-17T16:46:01.654Z,102816.47
2024-02-17T16:48:29.258Z,102809.59
2024-02-17T16:50:56.874Z,102830.78
2024-02-17T16:53:23.702Z,102829.03
2024-02-17T16:55:50.407Z,102829.03
2024-02-17T16:58:17.158Z,102838.00
2024-02-17T17:00:44.093Z,102835.25
2024-02-17T17:03:11.531Z,102843.31
2024-02-17T17:05:38.349Z,102849.50
2024-02-17T17:08:07.454Z,102847.00
2024-02-17T17:10:34.174Z,102862.03
2024-02-17T17:13:01.171Z,102876.13
2024-02-17T17:15:27.960Z,102860.09
2024-02-17T17:17:54.824Z,102863.56
2024-02-17T17:20:24.578Z,102873.41
2024-02-17T17:22:51.401Z,102877.00
2024-02-17T17:25:18.125Z,102878.00
2024-02-17T17:27:44.970Z,102878.84
2024-02-17T17:30:15.863Z,102884.19
2024-02-17T17:32:42.798Z,102892.97
2024-02-17T17:35:14.652Z,102889.41
2024-02-17T17:37:42.005Z,102892.06
2024-02-17T17:40:12.235Z,102900.97
2024-02-17T17:45:54.533Z,102895.00
2024-02-17T17:48:21.505Z,102898.47
2024-02-17T17:50:49.654Z,102908.97
2024-02-17T17:53:24.645Z,102906.38
2024-02-17T17:55:51.563Z,102920.56
2024-02-17T17:58:21.085Z,102916.31
2024-02-17T18:00:48.568Z,102920.88
2024-02-17T18:03:15.614Z,102917.38
2024-02-17T18:05:42.479Z,102918.41
2024-02-17T18:08:10.506Z,102923.84
2024-02-17T18:10:37.239Z,102925.69
2024-02-17T18:13:06.535Z,102928.41
2024-02-17T18:15:33.268Z,102924.09
2024-02-17T18:18:00.608Z,102937.66
2024-02-17T18:20:29.382Z,102937.66
2024-02-17T18:22:56.056Z,102935.00
2024-02-17T18:25:22.782Z,102939.34
2024-02-17T18:27:49.918Z,102949.94
2024-02-17T18:30:16.748Z,102952.59
2024-02-17T18:32:47.305Z,102953.44
2024-02-17T18:35:14.102Z,102957.81
2024-02-17T18:37:43.795Z,102960.53
2024-02-17T18:40:11.143Z,102965.84
2024-02-17T18:42:38.411Z,102968.44
2024-02-17T18:45:05.649Z,102973.63
2024-02-17T18:47:32.569Z,102978.84
2024-02-17T18:50:02.515Z,102977.25
2024-02-17T18:52:30.284Z,102981.69
2024-02-17T18:54:57.797Z,102978.31
2024-02-17T18:57:24.572Z,102994.44
2024-02-17T18:59:51.366Z,102998.91
2024-02-17T19:02:18.381Z,102990.91
2024-02-17T19:04:56.463Z,102999.91
2024-02-17T19:07:23.245Z,102998.09
2024-02-17T19:09:49.983Z,102996.44
2024-02-17T19:12:16.822Z,103001.03
2024-02-17T19:14:49.055Z,103009.91
2024-02-17T19:17:18.667Z,103014.28
2024-02-17T19:19:47.879Z,103015.25
2024-02-17T19:22:17.444Z,103020.72
2024-02-17T19:24:44.381Z,103022.56
2024-02-17T19:27:13.999Z,103029.75
2024-02-17T19:29:44.222Z,103024.53
2024-02-17T19:32:10.955Z,103029.03
2024-02-17T19:34:37.870Z,103023.81
2024-02-17T19:37:05.050Z,103024.66
2024-02-17T19:39:34.367Z,103031.94
2024-02-17T19:42:10.095Z,103034.59
2024-02-17T19:44:39.168Z,103035.56
2024-02-17T19:47:06.263Z,103035.66
2024-02-17T19:49:35.236Z,103032.31
2024-02-17T19:52:06.776Z,103042.88
2024-02-17T19:54:33.944Z,103041.22
2024-02-17T19:57:29.415Z,103045.88
2024-02-17T19:59:56.119Z,103045.06
2024-02-17T20:02:23.894Z,103046.91
2024-02-17T20:04:51.041Z,103054.09
2024-02-17T20:07:24.691Z,103062.16
2024-02-17T20:09:56.660Z,103071.09
2024-02-17T20:12:26.712Z,103066.69
2024-02-17T20:15:01.565Z,103087.88
2024-02-17T20:17:36.086Z,103064.44
2024-02-17T20:20:10.450Z,103089.09
2024-02-17T20:22:39.117Z,103083.88
2024-02-17T20:25:06.439Z,103090.13
2024-02-17T20:27:33.562Z,103090.38
2024-02-17T20:30:00.462Z,103097.66
2024-02-17T20:32:34.780Z,103097.66
2024-02-17T20:35:18.508Z,103096.03
2024-02-17T20:38:50.902Z,103098.69
2024-02-17T20:41:26.777Z,103100.78
2024-02-17T20:43:53.590Z,103101.69
2024-02-17T20:46:20.303Z,103100.03
2024-02-17T20:48:47.156Z,103114.16
2024-02-17T20:51:16.837Z,103118.63
2024-02-17T20:53:43.754Z,103124.78
2024-02-17T20:56:13.351Z,103130.16
2024-02-17T20:58:40.391Z,103130.09
2024-02-17T21:01:08.678Z,103133.72
2024-02-17T21:03:35.734Z,103137.41
2024-02-17T21:06:04.501Z,103128.66
2024-02-17T21:08:31.430Z,103126.97
2024-02-17T21:10:58.503Z,103132.28
2024-02-17T21:13:25.419Z,103133.19
2024-02-17T21:15:52.435Z,103131.41
2024-02-17T21:18:19.659Z,103132.50
2024-02-17T21:20:46.367Z,103143.22
2024-02-17T21:23:13.301Z,103132.69
2024-02-17T21:25:43.061Z,103142.47
2024-02-17T21:28:13.297Z,103141.59
2024-02-17T21:30:40.129Z,103143.53
2024-02-17T21:33:07.030Z,103142.84
2024-02-17T21:35:33.865Z,103147.31
2024-02-17T21:38:01.537Z,103151.78
2024-02-17T21:40:28.342Z,103151.72
2024-02-17T21:42:55.589Z,103150.88
2024-02-17T21:45:24.930Z,103140.25
2024-02-17T21:47:51.825Z,103145.56
2024-02-17T21:50:18.810Z,103145.66
2024-02-17T21:52:45.566Z,103147.53
2024-02-17T21:55:15.785Z,103146.75
2024-02-17T21:57:43.125Z,103161.03
2024-02-17T22:00:10.710Z,103157.53
2024-02-17T22:02:37.459Z,103157.59
2024-02-17T22:05:04.452Z,103168.38
2024-02-17T22:07:32.045Z,103175.44
2024-02-17T22:09:58.914Z,103181.75
2024-02-17T22:12:27.401Z,103180.97
2024-02-17T22:14:54.235Z,103181.06
2024-02-17T22:17:20.978Z,103191.69
2024-02-17T22:19:50.687Z,103189.09
2024-02-17T22:22:18.369Z,103198.06
2024-02-17T22:24:45.063Z,103192.84
2024-02-17T22:27:11.772Z,103203.38
2024-02-17T22:29:38.833Z,103198.88
2024-02-17T22:32:05.865Z,103202.38
2024-02-17T22:34:32.852Z,103198.81
2024-02-17T22:36:59.847Z,103195.25
2024-02-17T22:39:26.649Z,103199.63
2024-02-17T22:41:55.041Z,103190.84
2024-02-17T22:44:21.924Z,103192.59
2024-02-17T22:46:48.820Z,103201.47
2024-02-17T22:49:15.592Z,103197.09
2024-02-17T22:51:43.650Z,103208.63
2024-02-17T22:54:10.943Z,103204.13
2024-02-17T22:56:37.772Z,103205.03
2024-02-17T22:59:04.535Z,103205.84
2024-02-17T23:01:31.389Z,103211.19
2024-02-17T23:03:58.259Z,103214.81
2024-02-17T23:06:25.194Z,103221.97
2024-02-17T23:08:52.086Z,103212.44
2024-02-17T23:11:18.947Z,103214.28
2024-02-17T23:13:45.638Z,103202.81
2024-02-17T23:16:12.351Z,103208.97
2024-02-17T23:18:39.272Z,103210.88
2024-02-17T23:21:06.221Z,103209.22
2024-02-17T23:23:33.159Z,103214.47
2024-02-17T23:25:59.875Z,103211.09
2024-02-17T23:28:28.100Z,103217.25
2024-02-17T23:30:54.839Z,103213.78
2024-02-17T23:33:21.660Z,103231.47
2024-02-17T23:35:48.766Z,103219.97
2024-02-17T23:38:17.064Z,103228.94
2024-02-17T23:40:43.756Z,103232.59
2024-02-17T23:43:10.583Z,103227.38
2024-02-17T23:45:37.422Z,103226.59
2024-02-17T23:48:07.106Z,103228.41
2024-02-17T23:50:34.575Z,103233.91
2024-02-17T23:53:01.284Z,103239.19
2024-02-17T23:55:27.948Z,103252.47
2024-02-17T23:57:54.833Z,103240.94
